^^
Saratoga-Weather Station Historical Data
Daily Summary for September 28, 2020 Units:  English    Metric   Both
Daily Weekly Monthly Yearly Custom
  High: Low: Average:
Temperature: 57.2 °F 50.7 °F 54 °F
Dew Point: 51.8 °F 46.8 °F 49.3 °F
Humidity: 96% 68% 84%
Wind Speed: 12.1mph 0mph 2.4mph
Wind Gust: 16mph - -
Wind- - SW
Pressure: 29.9 in 29.7 in -
Precipitation: 0.26 in    
Historical Graphs
 
 
Tabular Data for September 28, 2020
Time Temperature Dew Point Pressure Wind Wind Speed Wind Gust Humidity Rainfall Rate (Hourly) solar
00:00 50.7 °F 48.7 °F 29.7 in ENE 0.9 mph 3 mph 93% 0.02 in 0 W/m2
00:05 50.9 °F 49.3 °F 29.7 in WNW 2.9 mph 5 mph 94% 0.02 in 0 W/m2
00:10 50.9 °F 49.3 °F 29.7 in NW 4 mph 7 mph 94% 0.02 in 0 W/m2
00:15 51.1 °F 49.5 °F 29.7 in ENE 2.9 mph 5 mph 94% 0.02 in 0 W/m2
00:20 51.1 °F 49.5 °F 29.7 in NNW 2.9 mph 4 mph 94% 0.02 in 0 W/m2
00:26 51.1 °F 49.1 °F 29.7 in NE 4 mph 4 mph 93% 0.02 in 0 W/m2
00:31 51.3 °F 49.3 °F 29.7 in Calm   10 mph 93% 0.02 in 0 W/m2
00:36 51.4 °F 49.5 °F 29.7 in ENE 2 mph 3 mph 93% 0.02 in 0 W/m2
00:41 51.4 °F 49.5 °F 29.7 in NE 0.9 mph 10 mph 93% 0.02 in 0 W/m2
00:46 51.4 °F 49.5 °F 29.7 in NE 0.9 mph 5 mph 93% 0.02 in 0 W/m2
00:51 51.4 °F 49.8 °F 29.7 in ENE 2 mph 6 mph 94% 0.01 in 0 W/m2
00:56 51.6 °F 50 °F 29.7 in South 0.9 mph 3 mph 94% 0 in 0 W/m2
01:01 51.6 °F 50 °F 29.7 in West 4 mph 6 mph 94% 0 in 0 W/m2
01:06 51.6 °F 50 °F 29.7 in NW 2 mph 4 mph 94% 0 in 0 W/m2
01:11 51.8 °F 50.2 °F 29.7 in NNE 2 mph 5 mph 94% 0 in 0 W/m2
01:16 52 °F 50.4 °F 29.7 in East 2.9 mph 4 mph 94% 0 in 0 W/m2
01:21 52 °F 50.4 °F 29.7 in East 6.9 mph 10 mph 94% 0 in 0 W/m2
01:26 52.2 °F 50.2 °F 29.7 in NE 4 mph 4 mph 93% 0 in 0 W/m2
01:31 52.2 °F 50.5 °F 29.7 in NW 4.9 mph 5 mph 94% 0 in 0 W/m2
01:36 52.3 °F 50.7 °F 29.7 in West 2.9 mph 12 mph 94% 0 in 0 W/m2
01:41 52.3 °F 50.7 °F 29.7 in WSW 0.9 mph 5 mph 94% 0 in 0 W/m2
01:46 52.3 °F 50.7 °F 29.7 in NW 0.9 mph 12 mph 94% 0 in 0 W/m2
01:51 52.3 °F 50.7 °F 29.7 in North 0.9 mph 5 mph 94% 0 in 0 W/m2
01:56 52.3 °F 50.7 °F 29.7 in NE 2 mph 5 mph 94% 0 in 0 W/m2
02:01 52.3 °F 50.7 °F 29.7 in NNE 0.9 mph 5 mph 94% 0 in 0 W/m2
02:06 52.3 °F 50.7 °F 29.7 in WNW 2.9 mph 4 mph 94% 0 in 0 W/m2
02:11 52.3 °F 50.7 °F 29.7 in East 4 mph 11 mph 94% 0 in 0 W/m2
02:16 52.3 °F 50.7 °F 29.7 in ENE 0.9 mph 4 mph 94% 0 in 0 W/m2
02:21 52.3 °F 50.7 °F 29.7 in WNW 4 mph 4 mph 94% 0.01 in 0 W/m2
02:26 52.3 °F 50.7 °F 29.7 in ENE 0.9 mph 3 mph 94% 0.01 in 0 W/m2
02:31 52.3 °F 50.7 °F 29.7 in WNW 2.9 mph 3 mph 94% 0.01 in 0 W/m2
02:36 52.2 °F 50.5 °F 29.7 in North 2 mph 4 mph 94% 0.02 in 0 W/m2
02:41 52.2 °F 50.5 °F 29.7 in NE 6 mph 6 mph 94% 0.02 in 0 W/m2
02:46 52.2 °F 50.7 °F 29.7 in ENE 2.9 mph 3 mph 95% 0.02 in 0 W/m2
02:51 52.2 °F 50.7 °F 29.7 in NE 6 mph 6 mph 95% 0.02 in 0 W/m2
02:56 52.2 °F 50.7 °F 29.7 in NW 2 mph 4 mph 95% 0.02 in 0 W/m2
03:01 52.2 °F 50.7 °F 29.7 in Calm   2 mph 95% 0.03 in 0 W/m2
03:06 52.2 °F 50.7 °F 29.7 in NW 2 mph 4 mph 95% 0.03 in 0 W/m2
03:11 52.2 °F 50.7 °F 29.7 in NW 2 mph 2 mph 95% 0.03 in 0 W/m2
03:16 52.2 °F 50.7 °F 29.7 in Calm   3 mph 95% 0.04 in 0 W/m2
03:21 52.2 °F 50.7 °F 29.7 in NE 2.9 mph 8 mph 95% 0.04 in 0 W/m2
03:26 52.2 °F 50.7 °F 29.7 in ENE 0.9 mph 4 mph 95% 0.05 in 0 W/m2
03:31 52.2 °F 50.7 °F 29.7 in North 4 mph 8 mph 95% 0.06 in 0 W/m2
03:36 52.2 °F 50.7 °F 29.7 in NE 0.9 mph 3 mph 95% 0.06 in 0 W/m2
03:41 52.2 °F 50.7 °F 29.7 in WNW 2 mph 4 mph 95% 0.07 in 0 W/m2
03:46 52.2 °F 50.7 °F 29.7 in North 2.9 mph 3 mph 95% 0.06 in 0 W/m2
03:51 52.2 °F 50.7 °F 29.7 in WSW 0.9 mph 7 mph 95% 0.07 in 0 W/m2
03:56 52.2 °F 50.7 °F 29.7 in West 0.9 mph 2 mph 95% 0.08 in 0 W/m2
04:01 52.2 °F 50.7 °F 29.7 in NNW 0.9 mph 7 mph 95% 0.08 in 0 W/m2
04:06 52 °F 50.5 °F 29.7 in West 0.9 mph 2 mph 95% 0.09 in 0 W/m2
04:11 52 °F 50.5 °F 29.7 in NW 2 mph 3 mph 95% 0.1 in 0 W/m2
04:16 52 °F 50.5 °F 29.7 in NNW 2 mph 2 mph 95% 0.1 in 0 W/m2
04:21 52 °F 50.5 °F 29.7 in NNW 0.9 mph 4 mph 95% 0.1 in 0 W/m2
04:26 52 °F 50.5 °F 29.7 in West 0.9 mph 2 mph 95% 0.1 in 0 W/m2
04:31 52 °F 50.5 °F 29.7 in North 0.9 mph 2 mph 95% 0.09 in 0 W/m2
04:36 52 °F 50.5 °F 29.7 in NW 0.9 mph 2 mph 95% 0.09 in 0 W/m2
04:41 52 °F 50.5 °F 29.8 in West 0.9 mph 4 mph 95% 0.09 in 0 W/m2
04:46 52 °F 50.5 °F 29.8 in Calm   2 mph 95% 0.09 in 0 W/m2
04:51 52 °F 50.5 °F 29.8 in Calm   4 mph 95% 0.09 in 0 W/m2
04:56 52 °F 50.5 °F 29.8 in Calm     95% 0.09 in 0 W/m2
05:01 52 °F 50.5 °F 29.8 in Calm   4 mph 95% 0.08 in 0 W/m2
05:06 52 °F 50.5 °F 29.7 in ESE 0.9 mph 2 mph 95% 0.07 in 0 W/m2
05:12 51.8 °F 50.4 °F 29.8 in Calm     95% 0.06 in 0 W/m2
05:17 51.8 °F 50.4 °F 29.8 in ESE 2 mph 2 mph 95% 0.06 in 0 W/m2
05:22 51.8 °F 50.4 °F 29.8 in Calm     95% 0.05 in 0 W/m2
05:27 51.6 °F 50.2 °F 29.8 in Calm     95% 0.05 in 0 W/m2
05:32 51.6 °F 50.2 °F 29.8 in Calm   3 mph 95% 0.04 in 0 W/m2
05:37 51.6 °F 50.2 °F 29.8 in Calm   1 mph 95% 0.03 in 0 W/m2
05:42 51.6 °F 50.2 °F 29.8 in Calm   3 mph 95% 0.03 in 0 W/m2
05:47 51.6 °F 50.2 °F 29.8 in Calm   1 mph 95% 0.03 in 0 W/m2
05:52 51.6 °F 50.2 °F 29.8 in Calm   1 mph 95% 0.03 in 0 W/m2
05:57 51.6 °F 50.5 °F 29.8 in East 2 mph 2 mph 96% 0.02 in 0 W/m2
06:02 51.6 °F 50.5 °F 29.8 in ENE 2 mph 2 mph 96% 0.03 in 0 W/m2
06:07 51.6 °F 50.5 °F 29.8 in East 2 mph 4 mph 96% 0.03 in 0 W/m2
06:12 51.6 °F 50.5 °F 29.8 in ESE 0.9 mph 2 mph 96% 0.03 in 0 W/m2
06:17 52 °F 50.9 °F 29.8 in Calm   4 mph 96% 0.04 in 0 W/m2
06:22 52 °F 50.9 °F 29.8 in ESE 2 mph 2 mph 96% 0.04 in 0 W/m2
06:27 52.2 °F 51.1 °F 29.8 in Calm   6 mph 96% 0.03 in 0 W/m2
06:32 52.3 °F 51.3 °F 29.8 in NNW 0.9 mph 3 mph 96% 0.03 in 0 W/m2
06:37 52.3 °F 51.3 °F 29.8 in Calm   3 mph 96% 0.03 in 0 W/m2
06:42 52.5 °F 51.4 °F 29.8 in South 2 mph 5 mph 96% 0.03 in 0 W/m2
06:47 52.7 °F 51.6 °F 29.8 in Calm   4 mph 96% 0.02 in 0 W/m2
06:52 52.9 °F 51.8 °F 29.8 in Calm   2 mph 96% 0.02 in 0 W/m2
06:57 52.9 °F 51.4 °F 29.8 in WNW 0.9 mph 3 mph 95% 0.02 in 0 W/m2
07:02 52.9 °F 51.4 °F 29.8 in NW 0.9 mph 6 mph 95% 0.02 in 0 W/m2
07:07 52.9 °F 51.4 °F 29.8 in NW 0.9 mph 3 mph 95% 0.02 in 0 W/m2
07:12 52.9 °F 51.4 °F 29.8 in WSW 2 mph 5 mph 95% 0 in 0 W/m2
07:17 53.1 °F 51.6 °F 29.8 in West 2 mph 11 mph 95% 0 in 0 W/m2
07:22 53.1 °F 51.6 °F 29.8 in SE 2 mph 5 mph 95% 0 in 0 W/m2
07:27 53.1 °F 51.4 °F 29.8 in Calm   11 mph 94% 0 in 5 W/m2
07:32 53.1 °F 51.4 °F 29.8 in NW 2 mph 4 mph 94% 0 in 7 W/m2
07:37 53.1 °F 51.4 °F 29.8 in NE 2.9 mph 3 mph 94% 0 in 9 W/m2
07:42 53.1 °F 51.4 °F 29.8 in Calm   1 mph 94% 0 in 7 W/m2
07:47 52.9 °F 51.3 °F 29.8 in WNW 0.9 mph 2 mph 94% 0 in 11 W/m2
07:52 52.9 °F 51.3 °F 29.8 in NNW 0.9 mph 4 mph 94% 0.01 in 26 W/m2
07:57 52.9 °F 51.3 °F 29.8 in Calm   3 mph 94% 0.01 in 42 W/m2
08:02 53.1 °F 51.4 °F 29.8 in WNW 0.9 mph 3 mph 94% 0.01 in 37 W/m2
08:07 53.1 °F 51.4 °F 29.8 in NW 2.9 mph 4 mph 94% 0.01 in 47 W/m2
08:12 53.1 °F 51.4 °F 29.8 in Calm   3 mph 94% 0.01 in 69 W/m2
08:17 53.2 °F 51.6 °F 29.8 in Calm   3 mph 94% 0.01 in 35 W/m2
08:22 53.2 °F 51.6 °F 29.8 in NNE 2 mph 2 mph 94% 0.01 in 26 W/m2
08:27 53.2 °F 51.6 °F 29.8 in Calm   3 mph 94% 0.01 in 28 W/m2
08:32 53.2 °F 51.6 °F 29.8 in Calm   2 mph 94% 0.01 in 35 W/m2
08:38 53.1 °F 51.4 °F 29.8 in North 6 mph 6 mph 94% 0.01 in 56 W/m2
08:43 53.1 °F 51.4 °F 29.8 in NNW 4 mph 6 mph 94% 0.01 in 39 W/m2
08:48 53.2 °F 51.3 °F 29.8 in SW 0.9 mph 2 mph 93% 0.01 in 40 W/m2
08:53 53.2 °F 51.3 °F 29.8 in NNW 2 mph 6 mph 93% 0.01 in 65 W/m2
08:58 53.2 °F 51.3 °F 29.8 in WNW 2 mph 8 mph 93% 0.01 in 47 W/m2
09:03 53.4 °F 51.4 °F 29.8 in West 0.9 mph 4 mph 93% 0.01 in 44 W/m2
09:08 53.4 °F 51.4 °F 29.8 in NW 0.9 mph 3 mph 93% 0.01 in 14 W/m2
09:13 53.2 °F 51.3 °F 29.8 in WNW 2.9 mph 7 mph 93% 0.01 in 23 W/m2
09:18 53.2 °F 51.3 °F 29.8 in WNW 0.9 mph 4 mph 93% 0.01 in 33 W/m2
09:23 53.1 °F 51.1 °F 29.9 in NW 4 mph 7 mph 93% 0.01 in 35 W/m2
09:28 53.1 °F 51.1 °F 29.9 in NW 2.9 mph 7 mph 93% 0.02 in 76 W/m2
09:33 53.1 °F 50.7 °F 29.9 in West 6.9 mph 8 mph 92% 0.02 in 77 W/m2
09:38 53.1 °F 50.7 °F 29.9 in WNW 2 mph 8 mph 92% 0.02 in 97 W/m2
09:43 53.2 °F 50.9 °F 29.9 in NW 2 mph 4 mph 92% 0.02 in 167 W/m2
09:48 53.4 °F 51.1 °F 29.9 in WSW 2.9 mph 11 mph 92% 0.02 in 120 W/m2
09:53 54 °F 51.6 °F 29.9 in North 4 mph 4 mph 92% 0.01 in 144 W/m2
09:58 54.1 °F 51.8 °F 29.9 in Calm   11 mph 92% 0.01 in 160 W/m2
10:03 54.3 °F 51.8 °F 29.9 in WNW 6.9 mph 14 mph 91% 0.01 in 188 W/m2
10:08 54.3 °F 51.4 °F 29.9 in West 10.1 mph 13 mph 90% 0.01 in 113 W/m2
10:13 54.5 °F 51.3 °F 29.9 in SSW 4 mph 14 mph 89% 0.01 in 109 W/m2
10:18 54.5 °F 51.1 °F 29.9 in WNW 2.9 mph 11 mph 88% 0.01 in 137 W/m2
10:23 54.5 °F 50.4 °F 29.9 in WSW 2 mph 7 mph 86% 0.01 in 76 W/m2
10:28 54.3 °F 49.8 °F 29.9 in West 12.1 mph 16 mph 85% 0 in 46 W/m2
10:33 54.3 °F 49.6 °F 29.9 in NE 2 mph 5 mph 84% 0 in 40 W/m2
10:38 54.1 °F 49.5 °F 29.9 in NW 10.1 mph 16 mph 84% 0 in 42 W/m2
10:43 54.1 °F 49.5 °F 29.9 in WNW 11 mph 11 mph 84% 0 in 47 W/m2
10:48 54.1 °F 49.8 °F 29.9 in NW 2 mph 10 mph 85% 0 in 84 W/m2
10:53 54.3 °F 49.6 °F 29.9 in WSW 2.9 mph 9 mph 84% 0 in 127 W/m2
10:59 54.5 °F 49.1 °F 29.9 in WNW 4 mph 13 mph 82% 0 in 42 W/m2
11:04 54.7 °F 49.3 °F 29.9 in NW 11 mph 13 mph 82% 0 in 42 W/m2
11:09 54.3 °F 48.6 °F 29.9 in WNW 6 mph 10 mph 81% 0 in 72 W/m2
11:14 54.5 °F 48.7 °F 29.9 in NNW 2.9 mph 8 mph 81% 0 in 95 W/m2
11:19 54.7 °F 48.9 °F 29.9 in NW 0.9 mph 12 mph 81% 0 in 62 W/m2
11:24 54.7 °F 48.6 °F 29.9 in WNW 2.9 mph 10 mph 80% 0 in 77 W/m2
11:29 54.7 °F 48.4 °F 29.9 in NW 2.9 mph 12 mph 79% 0 in 88 W/m2
11:34 54.9 °F 48.6 °F 29.9 in WSW 2 mph 13 mph 79% 0 in 158 W/m2
11:39 54.9 °F 48.2 °F 29.9 in WSW 2.9 mph 8 mph 78% 0 in 76 W/m2
11:44 54.7 °F 48.4 °F 29.9 in WSW 2.9 mph 13 mph 79% 0 in 392 W/m2
11:49 54.9 °F 48.7 °F 29.9 in NNW 2 mph 4 mph 80% 0 in 408 W/m2
11:54 55 °F 48.6 °F 29.9 in NW 2 mph 8 mph 79% 0 in 132 W/m2
11:59 54.9 °F 47.8 °F 29.9 in West 6 mph 13 mph 77% 0 in 100 W/m2
12:04 54.7 °F 48 °F 29.9 in NW 4 mph 6 mph 78% 0 in 146 W/m2
12:09 54.7 °F 48 °F 29.9 in NW 2.9 mph 7 mph 78% 0 in 158 W/m2
12:14 54.7 °F 48 °F 29.9 in South 4.9 mph 8 mph 78% 0 in 246 W/m2
12:19 55 °F 48.4 °F 29.9 in NNW 2.9 mph 8 mph 78% 0 in 151 W/m2
12:24 55.2 °F 47.8 °F 29.9 in West 0.9 mph 9 mph 76% 0 in 172 W/m2
12:29 55.6 °F 48.6 °F 29.9 in WSW 2 mph 3 mph 77% 0 in 123 W/m2
12:34 55.4 °F 48 °F 29.9 in West 2.9 mph 10 mph 76% 0 in 128 W/m2
12:39 55.2 °F 47.8 °F 29.9 in West 0.9 mph 8 mph 76% 0 in 192 W/m2
12:44 55.2 °F 47.5 °F 29.9 in SW 2 mph 4 mph 75% 0 in 193 W/m2
12:49 55.4 °F 47.7 °F 29.9 in WSW 4 mph 5 mph 75% 0 in 125 W/m2
12:54 55.6 °F 47.8 °F 29.9 in NW 2.9 mph 6 mph 75% 0 in 246 W/m2
12:59 55.8 °F 48 °F 29.9 in North 2 mph 5 mph 75% 0 in 181 W/m2
13:04 55.9 °F 47.8 °F 29.9 in NW 8.1 mph 9 mph 74% 0 in 197 W/m2
13:09 55.8 °F 47.7 °F 29.9 in WNW 2 mph 8 mph 74% 0 in 174 W/m2
13:14 55.9 °F 47.8 °F 29.9 in North 2.9 mph 4 mph 74% 0 in 202 W/m2
13:19 56.1 °F 48 °F 29.9 in WNW 2.9 mph 8 mph 74% 0 in 188 W/m2
13:24 56.3 °F 48.2 °F 29.9 in WNW 2.9 mph 5 mph 74% 0 in 220 W/m2
13:29 56.7 °F 47.7 °F 29.9 in NW 4 mph 16 mph 72% 0 in 195 W/m2
13:34 56.7 °F 47.7 °F 29.9 in NE 2 mph 6 mph 72% 0 in 151 W/m2
13:39 56.8 °F 47.5 °F 29.9 in South 2 mph 12 mph 71% 0 in 193 W/m2
13:44 57 °F 47.3 °F 29.9 in WSW 2 mph 5 mph 70% 0 in 132 W/m2
13:49 57 °F 46.9 °F 29.9 in NW 4 mph 6 mph 69% 0 in 146 W/m2
13:54 57 °F 46.9 °F 29.9 in WNW 2 mph 9 mph 69% 0 in 232 W/m2
13:59 57.2 °F 47.1 °F 29.9 in West 0.9 mph 7 mph 69% 0 in 199 W/m2
14:04 57.2 °F 46.8 °F 29.9 in WSW 0.9 mph 8 mph 68% 0 in 149 W/m2
14:09 57 °F 46.9 °F 29.9 in WNW 2.9 mph 4 mph 69% 0 in 100 W/m2
14:14 57 °F 46.9 °F 29.9 in NNW 2 mph 8 mph 69% 0 in 93 W/m2
14:19 56.8 °F 47.1 °F 29.9 in ENE 0.9 mph 6 mph 70% 0 in 77 W/m2
14:24 56.8 °F 47.1 °F 29.9 in NNW 2 mph 8 mph 70% 0 in 111 W/m2
14:29 56.7 °F 46.9 °F 29.9 in South 0.9 mph 8 mph 70% 0 in 172 W/m2
14:34 56.7 °F 47.3 °F 29.9 in Calm   3 mph 71% 0 in 121 W/m2
14:39 56.7 °F 46.9 °F 29.9 in SW 0.9 mph 10 mph 70% 0 in 86 W/m2
14:44 56.7 °F 47.3 °F 29.9 in WNW 2.9 mph 5 mph 71% 0 in 98 W/m2
14:49 56.7 °F 47.3 °F 29.9 in NW 4.9 mph 14 mph 71% 0 in 172 W/m2
14:54 56.7 °F 46.9 °F 29.9 in NNW 2.9 mph 8 mph 70% 0 in 171 W/m2
14:59 56.8 °F 47.1 °F 29.9 in NW 4.9 mph 14 mph 70% 0 in 153 W/m2
15:04 56.8 °F 47.1 °F 29.9 in West 0.9 mph 3 mph 70% 0 in 97 W/m2
15:09 56.7 °F 46.9 °F 29.9 in North 2 mph 5 mph 70% 0 in 102 W/m2
15:14 56.7 °F 46.9 °F 29.9 in WNW 2.9 mph 9 mph 70% 0 in 98 W/m2
15:19 56.7 °F 46.9 °F 29.9 in WNW 2.9 mph 6 mph 70% 0 in 77 W/m2
15:24 56.7 °F 47.3 °F 29.9 in WNW 4.9 mph 5 mph 71% 0 in 105 W/m2
15:29 56.5 °F 47.1 °F 29.9 in NW 6 mph 8 mph 71% 0 in 88 W/m2
15:34 56.5 °F 46.8 °F 29.9 in NNW 0.9 mph 11 mph 70% 0 in 69 W/m2
15:39 56.3 °F 46.9 °F 29.9 in ENE 2 mph 3 mph 71% 0 in 60 W/m2
15:44 56.1 °F 46.8 °F 29.9 in NNE 0.9 mph 11 mph 71% 0 in 58 W/m2
15:49 56.1 °F 46.8 °F 29.9 in WSW 2.9 mph 10 mph 71% 0 in 58 W/m2
15:54 55.9 °F 47.1 °F 29.9 in West 0.9 mph 2 mph 72% 0 in 47 W/m2
15:59 55.8 °F 46.9 °F 29.9 in Calm   6 mph 72% 0 in 40 W/m2
16:04 55.6 °F 46.8 °F 29.9 in ESE 2.9 mph 3 mph 72% 0 in 40 W/m2
16:10 55.6 °F 47.1 °F 29.9 in NE 4 mph 4 mph 73% 0 in 44 W/m2
16:15 55.4 °F 46.9 °F 29.9 in ENE 0.9 mph 2 mph 73% 0 in 40 W/m2
16:20 55.2 °F 46.8 °F 29.9 in ENE 2.9 mph 5 mph 73% 0 in 37 W/m2
16:25 55.2 °F 47.1 °F 29.9 in NNW 2.9 mph 4 mph 74% 0 in 35 W/m2
16:30 55 °F 46.9 °F 29.9 in West 2.9 mph 3 mph 74% 0 in 25 W/m2
16:35 55 °F 46.9 °F 29.9 in Calm   6 mph 74% 0 in 21 W/m2
16:40 55 °F 46.9 °F 29.9 in ENE 0.9 mph 5 mph 74% 0 in 32 W/m2
16:45 55 °F 46.9 °F 29.9 in NW 4 mph 7 mph 74% 0 in 30 W/m2
16:50 55 °F 46.9 °F 29.9 in Calm   2 mph 74% 0 in 16 W/m2
16:55 55 °F 46.9 °F 29.9 in East 2 mph 8 mph 74% 0 in 9 W/m2
17:00 55 °F 47.3 °F 29.9 in ENE 0.9 mph 1 mph 75% 0 in 11 W/m2
17:05 55 °F 47.3 °F 29.9 in NW 0.9 mph 8 mph 75% 0 in 11 W/m2
17:10 54.9 °F 47.1 °F 29.9 in Calm   8 mph 75% 0 in 0 W/m2
17:15 55 °F 46.9 °F 29.9 in NW 0.9 mph 3 mph 74% 0 in 0 W/m2
17:20 55 °F 47.3 °F 29.9 in Calm   8 mph 75% 0 in 0 W/m2
17:25 55 °F 47.3 °F 29.9 in SSW 0.9 mph 4 mph 75% 0 in 0 W/m2
17:30 54.9 °F 47.1 °F 29.9 in SW 0.9 mph 5 mph 75% 0 in 0 W/m2
17:35 54.9 °F 47.1 °F 29.9 in NNE 2 mph 4 mph 75% 0 in 0 W/m2
17:40 54.9 °F 47.1 °F 29.9 in ENE 2 mph 2 mph 75% 0 in 0 W/m2
17:45 54.9 °F 47.1 °F 29.9 in NW 4.9 mph 5 mph 75% 0 in 0 W/m2
17:50 55 °F 47.3 °F 29.9 in NW 2.9 mph 3 mph 75% 0 in 0 W/m2
17:55 55 °F 47.3 °F 29.9 in ESE 2 mph 2 mph 75% 0 in 0 W/m2
18:00 54.9 °F 47.1 °F 29.9 in SE 2 mph 5 mph 75% 0 in 0 W/m2
18:05 54.9 °F 47.5 °F 29.9 in ENE 2 mph 3 mph 76% 0 in 0 W/m2
18:10 54.7 °F 47.7 °F 29.9 in NW 2 mph 2 mph 77% 0 in 0 W/m2
18:15 54.7 °F 47.7 °F 29.9 in SSW 0.9 mph 6 mph 77% 0 in 0 W/m2
18:20 54.7 °F 47.7 °F 29.9 in WNW 0.9 mph 4 mph 77% 0 in 0 W/m2
18:25 54.9 °F 47.8 °F 29.9 in WNW 4 mph 6 mph 77% 0 in 0 W/m2
18:30 54.9 °F 47.8 °F 29.9 in WSW 0.9 mph 9 mph 77% 0 in 0 W/m2
18:35 54.9 °F 47.8 °F 29.9 in NNW 2.9 mph 5 mph 77% 0 in 0 W/m2
18:40 54.9 °F 47.8 °F 29.9 in Calm   9 mph 77% 0 in 0 W/m2
18:45 54.9 °F 47.8 °F 29.9 in SW 2.9 mph 4 mph 77% 0 in 0 W/m2
18:50 54.9 °F 47.8 °F 29.9 in SE 0.9 mph 4 mph 77% 0 in 0 W/m2
18:55 54.9 °F 47.8 °F 29.9 in NW 0.9 mph 3 mph 77% 0 in 0 W/m2
19:00 54.9 °F 47.8 °F 29.9 in West 0.9 mph 3 mph 77% 0 in 0 W/m2
19:05 54.9 °F 47.8 °F 29.9 in ESE 2.9 mph 7 mph 77% 0 in 0 W/m2
19:10 54.9 °F 48.2 °F 29.9 in Calm   4 mph 78% 0 in 0 W/m2
19:15 54.7 °F 48 °F 29.9 in West 4 mph 4 mph 78% 0 in 0 W/m2
19:20 54.7 °F 48 °F 29.9 in NNE 0.9 mph 4 mph 78% 0 in 0 W/m2
19:25 54.7 °F 48 °F 29.9 in NW 2 mph 4 mph 78% 0 in 0 W/m2
19:30 54.7 °F 48 °F 29.9 in WNW 2 mph 5 mph 78% 0 in 0 W/m2
19:35 54.9 °F 48.2 °F 29.9 in NNW 4 mph 4 mph 78% 0 in 0 W/m2
19:40 54.9 °F 47.8 °F 29.9 in East 8.1 mph 8 mph 77% 0 in 0 W/m2
19:45 54.9 °F 48.2 °F 29.9 in North 0.9 mph 7 mph 78% 0 in 0 W/m2
19:50 54.9 °F 48.2 °F 29.9 in Calm   8 mph 78% 0 in 0 W/m2
19:55 54.9 °F 48.2 °F 29.9 in WNW 4.9 mph 6 mph 78% 0 in 0 W/m2
20:00 54.9 °F 48.2 °F 29.9 in NW 2.9 mph 5 mph 78% 0 in 0 W/m2
20:05 54.7 °F 48 °F 29.9 in NW 2 mph 5 mph 78% 0 in 0 W/m2
20:10 54.7 °F 48.4 °F 29.9 in NE 2 mph 6 mph 79% 0 in 0 W/m2
20:15 54.7 °F 48.4 °F 29.9 in WNW 2.9 mph 8 mph 79% 0 in 0 W/m2
20:20 54.7 °F 48.4 °F 29.9 in NNW 0.9 mph 2 mph 79% 0 in 0 W/m2
20:25 54.7 °F 48.4 °F 29.9 in North 2 mph 8 mph 79% 0 in 0 W/m2
20:30 54.5 °F 48.2 °F 29.9 in North 0.9 mph 5 mph 79% 0 in 0 W/m2
20:35 54.5 °F 48.2 °F 29.9 in NNW 0.9 mph 8 mph 79% 0 in 0 W/m2
20:40 54.5 °F 48.2 °F 29.9 in ENE 4.9 mph 7 mph 79% 0 in 0 W/m2
20:45 54.5 °F 48.2 °F 29.9 in ENE 4 mph 10 mph 79% 0 in 0 W/m2
20:50 54.5 °F 48.2 °F 29.9 in NW 2.9 mph 5 mph 79% 0 in 0 W/m2
20:55 54.5 °F 48.2 °F 29.9 in North 2 mph 10 mph 79% 0 in 0 W/m2
21:00 54.7 °F 48.4 °F 29.9 in North 2 mph 9 mph 79% 0 in 0 W/m2
21:05 54.7 °F 48.4 °F 29.9 in NW 4.9 mph 10 mph 79% 0 in 0 W/m2
21:10 54.7 °F 48.4 °F 29.9 in WNW 4 mph 8 mph 79% 0 in 0 W/m2
21:15 54.7 °F 48.4 °F 29.9 in Calm   4 mph 79% 0 in 0 W/m2
21:20 54.7 °F 48.6 °F 29.9 in WSW 8.1 mph 10 mph 80% 0 in 0 W/m2
21:25 54.7 °F 48.6 °F 29.9 in NW 0.9 mph 10 mph 80% 0 in 0 W/m2
21:30 54.7 °F 48.6 °F 29.9 in West 2 mph 8 mph 80% 0 in 0 W/m2
21:35 54.7 °F 48.6 °F 29.9 in SSW 0.9 mph 8 mph 80% 0 in 0 W/m2
21:40 54.7 °F 48.6 °F 29.9 in WSW 2 mph 5 mph 80% 0 in 0 W/m2
21:45 54.7 °F 48.6 °F 29.9 in NNW 4.9 mph 8 mph 80% 0 in 0 W/m2
21:50 54.9 °F 48.7 °F 29.9 in WNW 2 mph 11 mph 80% 0 in 0 W/m2
21:55 54.9 °F 48.7 °F 29.9 in West 6 mph 11 mph 80% 0 in 0 W/m2
22:00 54.9 °F 48.7 °F 29.9 in NW 2 mph 7 mph 80% 0 in 0 W/m2
22:05 54.9 °F 49.1 °F 29.9 in WSW 0.9 mph 9 mph 81% 0 in 0 W/m2
22:10 54.9 °F 49.1 °F 29.9 in SSE 2.9 mph 9 mph 81% 0 in 0 W/m2
22:15 54.9 °F 49.1 °F 29.9 in East 4.9 mph 9 mph 81% 0 in 0 W/m2
22:20 54.9 °F 49.1 °F 29.9 in NNW 4 mph 6 mph 81% 0 in 0 W/m2
22:25 54.9 °F 49.1 °F 29.9 in NE 2.9 mph 8 mph 81% 0 in 0 W/m2
22:30 54.9 °F 49.1 °F 29.9 in SE 2 mph 8 mph 81% 0 in 0 W/m2
22:35 54.9 °F 49.1 °F 29.9 in WNW 2 mph 9 mph 81% 0 in 0 W/m2
22:40 54.9 °F 49.1 °F 29.9 in NNW 4 mph 7 mph 81% 0 in 0 W/m2
22:45 54.7 °F 48.9 °F 29.9 in NNE 2.9 mph 9 mph 81% 0 in 0 W/m2
22:50 54.7 °F 49.3 °F 29.9 in NW 2.9 mph 11 mph 82% 0 in 0 W/m2
22:55 54.7 °F 49.3 °F 29.9 in WNW 4 mph 10 mph 82% 0 in 0 W/m2
23:01 54.5 °F 49.1 °F 29.9 in WNW 2 mph 8 mph 82% 0 in 0 W/m2
23:06 54.5 °F 49.1 °F 29.9 in NNW 0.9 mph 8 mph 82% 0 in 0 W/m2
23:11 54.5 °F 49.1 °F 29.9 in WNW 4 mph 5 mph 82% 0 in 0 W/m2
23:16 54.5 °F 49.1 °F 29.9 in WSW 6 mph 7 mph 82% 0 in 0 W/m2
23:21 54.7 °F 49.3 °F 29.9 in NW 8.9 mph 9 mph 82% 0 in 0 W/m2
23:26 54.7 °F 49.3 °F 29.9 in WNW 4 mph 6 mph 82% 0 in 0 W/m2
23:31 54.5 °F 49.1 °F 29.9 in WSW 0.9 mph 8 mph 82% 0 in 0 W/m2
23:36 54.3 °F 49.6 °F 29.9 in South 2 mph 9 mph 84% 0 in 0 W/m2
23:41 54.1 °F 49.8 °F 29.9 in SSE 0.9 mph 4 mph 85% 0 in 0 W/m2
23:46 53.8 °F 49.6 °F 29.9 in NW 6 mph 9 mph 86% 0 in 0 W/m2
23:51 53.6 °F 49.5 °F 29.9 in WNW 2 mph 7 mph 86% 0 in 0 W/m2
23:56 53.4 °F 49.6 °F 29.9 in NW 6 mph 9 mph 87% 0 in 0 W/m2
Juneau County Weather
Compliments of Weather Underground - 4 mb